メインページ
METAR-TAF:

METAR-TAF

空港 :

ハルビン, 中華人民共和国

ハルビン太平国際空港

緯度: 45-45N, 経度: 126-46E, 海抜: 143m

現時点の気象観測

当レポートは1時間7分前の12:00(UTC)に作成
西/南西の風 6kt
気温 -14°C
湿度 55%
気圧 1020 hPa
視程10km以上
1,500メートル以下は雲なし、積乱雲なし

METAR: ZYHB 241200Z 25003MPS CAVOK M14/M21 Q1020 NOSIG

時間: 21:07 (13:07 UTC)

予報

当レポートは4時間2分前の09:05(UTC)に作成
予報は24日の 12時(UTC)から 25日の 12時(UTC)まで有効
南西の風 8kt
視程: 6000m
高度3000ftの雲は散在している

TAF: ZYHB 240905Z 2412/2512 22004MPS 6000 SCT030 TXM09/06Z TNM18/22Z

4,000以上の空港の気象観測と天気予報(METAR報とTAF報)

利用可能な観測所は地図上に黄色い丸と赤い丸で示す。

丸の上にカーソルを重ねると観測所名を参照できる。

次にクリックすると気象観測と天気予報を参照できる。

マップの切り替え:黒色「×」印の緑ボタンをクリックして拡大、「-」印の緑ボタンをクリックして縮小、緑色の三角印をクリックして隣りの地図に切り替え


METAR-TAF: